Etusivu
METAR-TAF:

METAR-TAF

Lentoasemat :

Volk Field Air National Guard Base

Camp Douglas, Wisconsin, Yhdysvallat

Leveyspiiri: 43-56N, Pituuspiiri: 090-16W, korkeus merenpinnasta: 277 m

Tämänhetkinen sää

Tämä raportti tehtiin 14 minuuttia sitten, kello 07.56 UTC
Tuuli 7 kn etelästä/kaakosta
Lämpötila 18°C
Kosteus 49%
Ilmanpaine 1013 hPa
Näkyvyys: 16.1 km
Hajonneita pilviä 14000 ft:n korkeudessa
Hajonneita pilviä 16000 ft:n korkeudessa

METAR: KVOK 220756Z AUTO 16007KT 10SM BKN140 BKN160 18/07 A2990 RMK AO2 SLP124 T01800071 TSNO $

Aika: 03:10 (08:10 UTC)

Sääennuste

Tämä raportti tehtiin 15 tuntia ja 17 minuuttia sitten, kello 16.53 UTC
Ennuste voimassa 20. päivästä klo 09 UTC - 21. päivään klo 15 UTC
Tuuli 6 kn eri suunnista
Näkyvyys: 2209 m
selkeää

TAF: KVOK 201653Z 2009/2115 VRB06KT 9999 SKC QNH2978INS TX17/2022Z TNM03/2011Z LAST NO AMDS AFT 2009 NEXT 2209

Säähavainnot ja -ennusteet yli 4000 lentoasemalta (METAR- ja TAF-raportit).

Käytössä olevat sääasemat on merkitty karttaan keltaisilla ja punaisilla pisteillä.

Aseta hiiri pisteen päälle nähdäksesi sääaseman nimen.

Klikkaa sitten nähdäksesi säähavainnot ja -ennusteet.

Kartan vaihtaminen: klikkaa mustalla rastilla varustettuja vihreitä pisteitä, niin voit zoomata sisään; viivalla varustettua vihreää pistettä, niin voit zoomata ulos tai vihreitä nuolia, niin pääset viereisille kartoille.


METAR-TAF: